sensor_id;sensor_type;location;lat;lon;timestamp;pressure;altitude;pressure_sealevel;temperature
14851;BMP180;7517;48.400;11.770;2023-02-12T00:01:20;98226.00;;;10.30
14851;BMP180;7517;48.400;11.770;2023-02-12T00:03:59;98228.00;;;10.30
14851;BMP180;7517;48.400;11.770;2023-02-12T00:06:26;98234.00;;;10.30
14851;BMP180;7517;48.400;11.770;2023-02-12T00:08:56;98221.00;;;10.30
14851;BMP180;7517;48.400;11.770;2023-02-12T00:11:26;98224.00;;;10.30
14851;BMP180;7517;48.400;11.770;2023-02-12T00:13:54;98223.00;;;10.30
14851;BMP180;7517;48.400;11.770;2023-02-12T00:16:24;98213.00;;;10.30
14851;BMP180;7517;48.400;11.770;2023-02-12T00:18:55;98217.00;;;10.30
14851;BMP180;7517;48.400;11.770;2023-02-12T00:21:23;98226.00;;;10.30
14851;BMP180;7517;48.400;11.770;2023-02-12T00:23:51;98226.00;;;10.30
14851;BMP180;7517;48.400;11.770;2023-02-12T00:26:21;98219.00;;;10.30
14851;BMP180;7517;48.400;11.770;2023-02-12T00:28:48;98221.00;;;10.30
14851;BMP180;7517;48.400;11.770;2023-02-12T00:31:18;98225.00;;;10.30
14851;BMP180;7517;48.400;11.770;2023-02-12T00:33:48;98228.00;;;10.30
14851;BMP180;7517;48.400;11.770;2023-02-12T00:36:19;98221.00;;;10.30
14851;BMP180;7517;48.400;11.770;2023-02-12T00:38:47;98218.00;;;10.30
14851;BMP180;7517;48.400;11.770;2023-02-12T00:41:14;98222.00;;;10.30
14851;BMP180;7517;48.400;11.770;2023-02-12T00:43:42;98224.00;;;10.30
14851;BMP180;7517;48.400;11.770;2023-02-12T00:46:09;98226.00;;;10.30
14851;BMP180;7517;48.400;11.770;2023-02-12T00:48:40;98230.00;;;10.30
14851;BMP180;7517;48.400;11.770;2023-02-12T00:51:09;98226.00;;;10.30
14851;BMP180;7517;48.400;11.770;2023-02-12T00:53:41;98235.00;;;10.30
14851;BMP180;7517;48.400;11.770;2023-02-12T00:56:24;98236.00;;;10.30
14851;BMP180;7517;48.400;11.770;2023-02-12T00:58:56;98240.00;;;10.30
14851;BMP180;7517;48.400;11.770;2023-02-12T01:01:29;98244.00;;;10.30
14851;BMP180;7517;48.400;11.770;2023-02-12T01:03:58;98235.00;;;10.30
14851;BMP180;7517;48.400;11.770;2023-02-12T01:06:27;98234.00;;;10.30
14851;BMP180;7517;48.400;11.770;2023-02-12T01:09:01;98234.00;;;10.30
14851;BMP180;7517;48.400;11.770;2023-02-12T01:11:30;98225.00;;;10.30
14851;BMP180;7517;48.400;11.770;2023-02-12T01:14:00;98226.00;;;10.30
14851;BMP180;7517;48.400;11.770;2023-02-12T01:16:32;98225.00;;;10.30
14851;BMP180;7517;48.400;11.770;2023-02-12T01:19:02;98231.00;;;10.30
14851;BMP180;7517;48.400;11.770;2023-02-12T01:21:33;98230.00;;;10.30
14851;BMP180;7517;48.400;11.770;2023-02-12T01:24:02;98206.00;;;10.30
14851;BMP180;7517;48.400;11.770;2023-02-12T01:26:31;98217.00;;;10.30
14851;BMP180;7517;48.400;11.770;2023-02-12T01:29:01;98218.00;;;10.30
14851;BMP180;7517;48.400;11.770;2023-02-12T01:31:32;98219.00;;;10.30
14851;BMP180;7517;48.400;11.770;2023-02-12T01:34:06;98237.00;;;10.30
14851;BMP180;7517;48.400;11.770;2023-02-12T01:36:34;98224.00;;;10.30
14851;BMP180;7517;48.400;11.770;2023-02-12T01:39:04;98208.00;;;10.30
14851;BMP180;7517;48.400;11.770;2023-02-12T01:41:38;98216.00;;;10.30
14851;BMP180;7517;48.400;11.770;2023-02-12T01:44:17;98201.00;;;10.30
14851;BMP180;7517;48.400;11.770;2023-02-12T01:46:48;98206.00;;;10.30
14851;BMP180;7517;48.400;11.770;2023-02-12T01:49:23;98194.00;;;10.30
14851;BMP180;7517;48.400;11.770;2023-02-12T01:51:57;98193.00;;;10.30
14851;BMP180;7517;48.400;11.770;2023-02-12T01:54:30;98201.00;;;10.30
14851;BMP180;7517;48.400;11.770;2023-02-12T01:57:04;98195.00;;;10.30
14851;BMP180;7517;48.400;11.770;2023-02-12T01:59:33;98200.00;;;10.20
14851;BMP180;7517;48.400;11.770;2023-02-12T02:02:02;98196.00;;;10.30
14851;BMP180;7517;48.400;11.770;2023-02-12T02:04:37;98211.00;;;10.30
14851;BMP180;7517;48.400;11.770;2023-02-12T02:07:09;98207.00;;;10.20
14851;BMP180;7517;48.400;11.770;2023-02-12T02:09:40;98207.00;;;10.20
14851;BMP180;7517;48.400;11.770;2023-02-12T02:12:09;98190.00;;;10.30
14851;BMP180;7517;48.400;11.770;2023-02-12T02:14:58;98209.00;;;10.20
14851;BMP180;7517;48.400;11.770;2023-02-12T02:17:50;98203.00;;;10.30
14851;BMP180;7517;48.400;11.770;2023-02-12T02:27:49;98222.00;;;10.20
14851;BMP180;7517;48.400;11.770;2023-02-12T02:30:43;98203.00;;;10.20
14851;BMP180;7517;48.400;11.770;2023-02-12T02:33:24;98203.00;;;10.20
14851;BMP180;7517;48.400;11.770;2023-02-12T02:36:13;98197.00;;;10.10
14851;BMP180;7517;48.400;11.770;2023-02-12T02:38:50;98202.00;;;10.10
14851;BMP180;7517;48.400;11.770;2023-02-12T02:41:28;98206.00;;;10.10
14851;BMP180;7517;48.400;11.770;2023-02-12T02:43:58;98217.00;;;10.10
14851;BMP180;7517;48.400;11.770;2023-02-12T02:46:33;98216.00;;;10.10
14851;BMP180;7517;48.400;11.770;2023-02-12T02:49:05;98227.00;;;10.10
14851;BMP180;7517;48.400;11.770;2023-02-12T02:51:39;98212.00;;;10.10
14851;BMP180;7517;48.400;11.770;2023-02-12T02:54:12;98227.00;;;10.20
14851;BMP180;7517;48.400;11.770;2023-02-12T02:56:45;98218.00;;;10.10
14851;BMP180;7517;48.400;11.770;2023-02-12T02:59:20;98225.00;;;10.10
14851;BMP180;7517;48.400;11.770;2023-02-12T03:01:55;98220.00;;;10.10
14851;BMP180;7517;48.400;11.770;2023-02-12T03:04:31;98224.00;;;10.00
14851;BMP180;7517;48.400;11.770;2023-02-12T03:07:06;98221.00;;;10.00
14851;BMP180;7517;48.400;11.770;2023-02-12T03:09:41;98219.00;;;10.00
14851;BMP180;7517;48.400;11.770;2023-02-12T03:12:17;98221.00;;;10.00
14851;BMP180;7517;48.400;11.770;2023-02-12T03:14:51;98223.00;;;10.00
14851;BMP180;7517;48.400;11.770;2023-02-12T03:17:30;98226.00;;;9.90
14851;BMP180;7517;48.400;11.770;2023-02-12T03:20:05;98219.00;;;9.90
14851;BMP180;7517;48.400;11.770;2023-02-12T03:22:39;98236.00;;;9.90
14851;BMP180;7517;48.400;11.770;2023-02-12T03:25:14;98234.00;;;9.90
14851;BMP180;7517;48.400;11.770;2023-02-12T03:27:47;98229.00;;;9.90
14851;BMP180;7517;48.400;11.770;2023-02-12T03:30:15;98229.00;;;9.90
14851;BMP180;7517;48.400;11.770;2023-02-12T03:32:53;98233.00;;;9.90
14851;BMP180;7517;48.400;11.770;2023-02-12T03:35:30;98221.00;;;9.90
14851;BMP180;7517;48.400;11.770;2023-02-12T03:38:06;98221.00;;;9.80
14851;BMP180;7517;48.400;11.770;2023-02-12T03:40:45;98218.00;;;9.90
14851;BMP180;7517;48.400;11.770;2023-02-12T03:43:24;98240.00;;;9.80
14851;BMP180;7517;48.400;11.770;2023-02-12T03:45:59;98239.00;;;9.80
14851;BMP180;7517;48.400;11.770;2023-02-12T03:48:37;98240.00;;;9.80
14851;BMP180;7517;48.400;11.770;2023-02-12T03:51:17;98244.00;;;9.80
14851;BMP180;7517;48.400;11.770;2023-02-12T03:53:46;98243.00;;;9.80
14851;BMP180;7517;48.400;11.770;2023-02-12T03:56:21;98248.00;;;9.80
14851;BMP180;7517;48.400;11.770;2023-02-12T03:58:50;98253.00;;;9.80
14851;BMP180;7517;48.400;11.770;2023-02-12T04:01:17;98251.00;;;9.80
14851;BMP180;7517;48.400;11.770;2023-02-12T04:03:46;98249.00;;;9.80
14851;BMP180;7517;48.400;11.770;2023-02-12T04:06:23;98249.00;;;9.80
14851;BMP180;7517;48.400;11.770;2023-02-12T04:08:54;98252.00;;;9.80
14851;BMP180;7517;48.400;11.770;2023-02-12T04:11:34;98246.00;;;9.70
14851;BMP180;7517;48.400;11.770;2023-02-12T04:14:19;98252.00;;;9.70
14851;BMP180;7517;48.400;11.770;2023-02-12T04:16:57;98251.00;;;9.70
14851;BMP180;7517;48.400;11.770;2023-02-12T04:19:37;98266.00;;;9.70
14851;BMP180;7517;48.400;11.770;2023-02-12T04:22:21;98259.00;;;9.70
14851;BMP180;7517;48.400;11.770;2023-02-12T04:25:06;98250.00;;;9.70
14851;BMP180;7517;48.400;11.770;2023-02-12T04:27:46;98250.00;;;9.70
14851;BMP180;7517;48.400;11.770;2023-02-12T04:30:24;98266.00;;;9.70
14851;BMP180;7517;48.400;11.770;2023-02-12T04:32:56;98265.00;;;9.70
14851;BMP180;7517;48.400;11.770;2023-02-12T04:35:33;98262.00;;;9.70
14851;BMP180;7517;48.400;11.770;2023-02-12T04:38:10;98249.00;;;9.70
14851;BMP180;7517;48.400;11.770;2023-02-12T04:40:40;98259.00;;;9.70
14851;BMP180;7517;48.400;11.770;2023-02-12T04:43:09;98259.00;;;9.70
14851;BMP180;7517;48.400;11.770;2023-02-12T04:45:37;98258.00;;;9.70
14851;BMP180;7517;48.400;11.770;2023-02-12T04:48:06;98268.00;;;9.70
14851;BMP180;7517;48.400;11.770;2023-02-12T04:50:41;98267.00;;;9.70
14851;BMP180;7517;48.400;11.770;2023-02-12T04:53:11;98265.00;;;9.70
14851;BMP180;7517;48.400;11.770;2023-02-12T04:55:38;98269.00;;;9.70
14851;BMP180;7517;48.400;11.770;2023-02-12T04:58:06;98271.00;;;9.70
14851;BMP180;7517;48.400;11.770;2023-02-12T05:00:34;98279.00;;;9.60
14851;BMP180;7517;48.400;11.770;2023-02-12T05:03:02;98273.00;;;9.70
14851;BMP180;7517;48.400;11.770;2023-02-12T05:05:29;98268.00;;;9.60
14851;BMP180;7517;48.400;11.770;2023-02-12T05:07:59;98275.00;;;9.60
14851;BMP180;7517;48.400;11.770;2023-02-12T05:10:26;98283.00;;;9.60
14851;BMP180;7517;48.400;11.770;2023-02-12T05:12:54;98289.00;;;9.60
14851;BMP180;7517;48.400;11.770;2023-02-12T05:15:22;98295.00;;;9.60
14851;BMP180;7517;48.400;11.770;2023-02-12T05:17:49;98287.00;;;9.60
14851;BMP180;7517;48.400;11.770;2023-02-12T05:20:19;98295.00;;;9.60
14851;BMP180;7517;48.400;11.770;2023-02-12T05:22:51;98295.00;;;9.60
14851;BMP180;7517;48.400;11.770;2023-02-12T05:25:21;98283.00;;;9.60
14851;BMP180;7517;48.400;11.770;2023-02-12T05:27:49;98295.00;;;9.60
14851;BMP180;7517;48.400;11.770;2023-02-12T05:30:16;98295.00;;;9.60
14851;BMP180;7517;48.400;11.770;2023-02-12T05:32:44;98299.00;;;9.60
14851;BMP180;7517;48.400;11.770;2023-02-12T05:35:11;98297.00;;;9.60
14851;BMP180;7517;48.400;11.770;2023-02-12T05:37:38;98295.00;;;9.50
14851;BMP180;7517;48.400;11.770;2023-02-12T05:40:07;98292.00;;;9.50
14851;BMP180;7517;48.400;11.770;2023-02-12T05:42:37;98298.00;;;9.50
14851;BMP180;7517;48.400;11.770;2023-02-12T05:45:06;98289.00;;;9.50
14851;BMP180;7517;48.400;11.770;2023-02-12T05:47:33;98294.00;;;9.50
14851;BMP180;7517;48.400;11.770;2023-02-12T05:50:01;98298.00;;;9.50
14851;BMP180;7517;48.400;11.770;2023-02-12T05:52:28;98292.00;;;9.50
14851;BMP180;7517;48.400;11.770;2023-02-12T05:54:56;98297.00;;;9.40
14851;BMP180;7517;48.400;11.770;2023-02-12T05:57:23;98302.00;;;9.40
14851;BMP180;7517;48.400;11.770;2023-02-12T05:59:53;98295.00;;;9.50
14851;BMP180;7517;48.400;11.770;2023-02-12T06:02:20;98310.00;;;9.40
14851;BMP180;7517;48.400;11.770;2023-02-12T06:04:48;98301.00;;;9.40
14851;BMP180;7517;48.400;11.770;2023-02-12T06:07:15;98298.00;;;9.40
14851;BMP180;7517;48.400;11.770;2023-02-12T06:09:42;98301.00;;;9.50
14851;BMP180;7517;48.400;11.770;2023-02-12T06:12:10;98309.00;;;9.40
14851;BMP180;7517;48.400;11.770;2023-02-12T06:14:40;98298.00;;;9.50
14851;BMP180;7517;48.400;11.770;2023-02-12T06:17:09;98305.00;;;9.40
14851;BMP180;7517;48.400;11.770;2023-02-12T06:19:36;98302.00;;;9.40
14851;BMP180;7517;48.400;11.770;2023-02-12T06:22:04;98301.00;;;9.40
14851;BMP180;7517;48.400;11.770;2023-02-12T06:24:32;98307.00;;;9.40
14851;BMP180;7517;48.400;11.770;2023-02-12T06:26:59;98308.00;;;9.40
14851;BMP180;7517;48.400;11.770;2023-02-12T06:29:27;98314.00;;;9.40
14851;BMP180;7517;48.400;11.770;2023-02-12T06:31:55;98291.00;;;9.40
14851;BMP180;7517;48.400;11.770;2023-02-12T06:34:24;98313.00;;;9.40
14851;BMP180;7517;48.400;11.770;2023-02-12T06:36:53;98322.00;;;9.40
14851;BMP180;7517;48.400;11.770;2023-02-12T06:39:21;98318.00;;;9.40
14851;BMP180;7517;48.400;11.770;2023-02-12T06:41:48;98323.00;;;9.40
14851;BMP180;7517;48.400;11.770;2023-02-12T06:44:15;98329.00;;;9.40
14851;BMP180;7517;48.400;11.770;2023-02-12T06:46:43;98321.00;;;9.40
14851;BMP180;7517;48.400;11.770;2023-02-12T06:49:11;98331.00;;;9.40
14851;BMP180;7517;48.400;11.770;2023-02-12T06:51:41;98329.00;;;9.40
14851;BMP180;7517;48.400;11.770;2023-02-12T06:54:13;98338.00;;;9.40
14851;BMP180;7517;48.400;11.770;2023-02-12T06:56:41;98339.00;;;9.40
14851;BMP180;7517;48.400;11.770;2023-02-12T06:59:13;98337.00;;;9.40
14851;BMP180;7517;48.400;11.770;2023-02-12T07:01:41;98337.00;;;9.40
14851;BMP180;7517;48.400;11.770;2023-02-12T07:04:10;98337.00;;;9.50
14851;BMP180;7517;48.400;11.770;2023-02-12T07:06:37;98339.00;;;9.40
14851;BMP180;7517;48.400;11.770;2023-02-12T07:09:06;98339.00;;;9.50
14851;BMP180;7517;48.400;11.770;2023-02-12T07:11:35;98334.00;;;9.40
14851;BMP180;7517;48.400;11.770;2023-02-12T07:14:02;98337.00;;;9.50
14851;BMP180;7517;48.400;11.770;2023-02-12T07:16:30;98336.00;;;9.40
14851;BMP180;7517;48.400;11.770;2023-02-12T07:18:57;98334.00;;;9.50
14851;BMP180;7517;48.400;11.770;2023-02-12T07:21:24;98330.00;;;9.50
14851;BMP180;7517;48.400;11.770;2023-02-12T07:23:52;98334.00;;;9.50
14851;BMP180;7517;48.400;11.770;2023-02-12T07:26:21;98339.00;;;9.50
14851;BMP180;7517;48.400;11.770;2023-02-12T07:28:48;98328.00;;;9.50
14851;BMP180;7517;48.400;11.770;2023-02-12T07:31:19;98328.00;;;9.50
14851;BMP180;7517;48.400;11.770;2023-02-12T07:33:48;98328.00;;;9.50
14851;BMP180;7517;48.400;11.770;2023-02-12T07:36:19;98334.00;;;9.60
14851;BMP180;7517;48.400;11.770;2023-02-12T07:38:47;98335.00;;;9.60
14851;BMP180;7517;48.400;11.770;2023-02-12T07:41:17;98339.00;;;9.70
14851;BMP180;7517;48.400;11.770;2023-02-12T07:43:48;98346.00;;;9.80
14851;BMP180;7517;48.400;11.770;2023-02-12T07:46:19;98348.00;;;9.80
14851;BMP180;7517;48.400;11.770;2023-02-12T07:48:50;98347.00;;;9.90
14851;BMP180;7517;48.400;11.770;2023-02-12T07:51:18;98350.00;;;9.90
14851;BMP180;7517;48.400;11.770;2023-02-12T07:53:46;98346.00;;;10.00
14851;BMP180;7517;48.400;11.770;2023-02-12T07:56:17;98342.00;;;10.00
14851;BMP180;7517;48.400;11.770;2023-02-12T07:58:49;98345.00;;;10.10
14851;BMP180;7517;48.400;11.770;2023-02-12T08:01:20;98346.00;;;10.10
14851;BMP180;7517;48.400;11.770;2023-02-12T08:03:49;98348.00;;;10.10
14851;BMP180;7517;48.400;11.770;2023-02-12T08:06:21;98342.00;;;10.10
14851;BMP180;7517;48.400;11.770;2023-02-12T08:08:50;98350.00;;;10.20
14851;BMP180;7517;48.400;11.770;2023-02-12T08:11:18;98349.00;;;10.20
14851;BMP180;7517;48.400;11.770;2023-02-12T08:13:48;98347.00;;;10.20
14851;BMP180;7517;48.400;11.770;2023-02-12T08:16:18;98339.00;;;10.20
14851;BMP180;7517;48.400;11.770;2023-02-12T08:18:47;98352.00;;;10.20
14851;BMP180;7517;48.400;11.770;2023-02-12T08:21:17;98350.00;;;10.30
14851;BMP180;7517;48.400;11.770;2023-02-12T08:23:45;98343.00;;;10.20
14851;BMP180;7517;48.400;11.770;2023-02-12T08:26:18;98348.00;;;10.30
14851;BMP180;7517;48.400;11.770;2023-02-12T08:28:50;98338.00;;;10.30
14851;BMP180;7517;48.400;11.770;2023-02-12T08:31:22;98337.00;;;10.30
14851;BMP180;7517;48.400;11.770;2023-02-12T08:33:52;98352.00;;;10.40
14851;BMP180;7517;48.400;11.770;2023-02-12T08:36:22;98358.00;;;10.40
14851;BMP180;7517;48.400;11.770;2023-02-12T08:38:50;98352.00;;;10.50
14851;BMP180;7517;48.400;11.770;2023-02-12T08:41:20;98348.00;;;10.50
14851;BMP180;7517;48.400;11.770;2023-02-12T08:43:53;98352.00;;;10.60
14851;BMP180;7517;48.400;11.770;2023-02-12T08:46:23;98358.00;;;10.60
14851;BMP180;7517;48.400;11.770;2023-02-12T08:48:53;98348.00;;;10.60
14851;BMP180;7517;48.400;11.770;2023-02-12T08:51:24;98355.00;;;10.70
14851;BMP180;7517;48.400;11.770;2023-02-12T08:53:55;98355.00;;;10.70
14851;BMP180;7517;48.400;11.770;2023-02-12T08:56:24;98352.00;;;10.70
14851;BMP180;7517;48.400;11.770;2023-02-12T08:58:53;98351.00;;;10.80
14851;BMP180;7517;48.400;11.770;2023-02-12T09:01:24;98347.00;;;10.80
14851;BMP180;7517;48.400;11.770;2023-02-12T09:03:52;98359.00;;;10.80
14851;BMP180;7517;48.400;11.770;2023-02-12T09:06:22;98358.00;;;10.90
14851;BMP180;7517;48.400;11.770;2023-02-12T09:08:51;98359.00;;;10.90
14851;BMP180;7517;48.400;11.770;2023-02-12T09:11:21;98353.00;;;10.90
14851;BMP180;7517;48.400;11.770;2023-02-12T09:14:01;98361.00;;;11.00
14851;BMP180;7517;48.400;11.770;2023-02-12T09:16:30;98355.00;;;11.10
14851;BMP180;7517;48.400;11.770;2023-02-12T09:19:14;98360.00;;;11.10
14851;BMP180;7517;48.400;11.770;2023-02-12T09:21:57;98354.00;;;11.20
14851;BMP180;7517;48.400;11.770;2023-02-12T09:24:25;98345.00;;;11.30
14851;BMP180;7517;48.400;11.770;2023-02-12T09:27:03;98357.00;;;11.30
14851;BMP180;7517;48.400;11.770;2023-02-12T09:29:37;98357.00;;;11.40
14851;BMP180;7517;48.400;11.770;2023-02-12T09:32:05;98364.00;;;11.40
14851;BMP180;7517;48.400;11.770;2023-02-12T09:34:34;98363.00;;;11.40
14851;BMP180;7517;48.400;11.770;2023-02-12T09:37:02;98357.00;;;11.50
14851;BMP180;7517;48.400;11.770;2023-02-12T09:39:29;98364.00;;;11.60
14851;BMP180;7517;48.400;11.770;2023-02-12T09:42:35;98364.00;;;11.60
14851;BMP180;7517;48.400;11.770;2023-02-12T09:45:17;98377.00;;;11.70
14851;BMP180;7517;48.400;11.770;2023-02-12T09:47:54;98381.00;;;11.70
14851;BMP180;7517;48.400;11.770;2023-02-12T09:50:43;98375.00;;;11.70
14851;BMP180;7517;48.400;11.770;2023-02-12T09:53:15;98378.00;;;11.80
14851;BMP180;7517;48.400;11.770;2023-02-12T09:55:43;98373.00;;;11.80
14851;BMP180;7517;48.400;11.770;2023-02-12T09:58:16;98370.00;;;11.90
14851;BMP180;7517;48.400;11.770;2023-02-12T10:00:47;98367.00;;;11.90
14851;BMP180;7517;48.400;11.770;2023-02-12T10:03:17;98376.00;;;12.00
14851;BMP180;7517;48.400;11.770;2023-02-12T10:05:50;98364.00;;;12.00
14851;BMP180;7517;48.400;11.770;2023-02-12T10:08:47;98376.00;;;12.10
14851;BMP180;7517;48.400;11.770;2023-02-12T10:14:37;98387.00;;;12.20
14851;BMP180;7517;48.400;11.770;2023-02-12T10:17:18;98388.00;;;12.30
14851;BMP180;7517;48.400;11.770;2023-02-12T10:25:41;98388.00;;;12.40
14851;BMP180;7517;48.400;11.770;2023-02-12T10:28:14;98397.00;;;12.50
14851;BMP180;7517;48.400;11.770;2023-02-12T10:30:51;98395.00;;;12.50
14851;BMP180;7517;48.400;11.770;2023-02-12T10:33:26;98387.00;;;12.50
14851;BMP180;7517;48.400;11.770;2023-02-12T10:36:02;98393.00;;;12.50
14851;BMP180;7517;48.400;11.770;2023-02-12T10:38:38;98391.00;;;12.50
14851;BMP180;7517;48.400;11.770;2023-02-12T10:41:06;98393.00;;;12.50
14851;BMP180;7517;48.400;11.770;2023-02-12T10:43:33;98392.00;;;12.50
14851;BMP180;7517;48.400;11.770;2023-02-12T10:46:01;98405.00;;;12.50
14851;BMP180;7517;48.400;11.770;2023-02-12T10:48:36;98403.00;;;12.50
14851;BMP180;7517;48.400;11.770;2023-02-12T10:51:29;98400.00;;;12.50
14851;BMP180;7517;48.400;11.770;2023-02-12T10:54:38;98397.00;;;12.50
14851;BMP180;7517;48.400;11.770;2023-02-12T10:57:17;98396.00;;;12.50
14851;BMP180;7517;48.400;11.770;2023-02-12T10:59:49;98393.00;;;12.60
14851;BMP180;7517;48.400;11.770;2023-02-12T11:02:26;98396.00;;;12.60
14851;BMP180;7517;48.400;11.770;2023-02-12T11:04:57;98384.00;;;12.60
14851;BMP180;7517;48.400;11.770;2023-02-12T11:07:26;98389.00;;;12.50
14851;BMP180;7517;48.400;11.770;2023-02-12T11:09:55;98386.00;;;12.50
14851;BMP180;7517;48.400;11.770;2023-02-12T11:12:31;98396.00;;;12.50
14851;BMP180;7517;48.400;11.770;2023-02-12T11:15:06;98380.00;;;12.50
14851;BMP180;7517;48.400;11.770;2023-02-12T11:17:43;98387.00;;;12.50
14851;BMP180;7517;48.400;11.770;2023-02-12T11:20:26;98374.00;;;12.50
14851;BMP180;7517;48.400;11.770;2023-02-12T11:22:57;98377.00;;;12.60
14851;BMP180;7517;48.400;11.770;2023-02-12T11:25:29;98374.00;;;12.60
14851;BMP180;7517;48.400;11.770;2023-02-12T11:28:15;98370.00;;;12.60
14851;BMP180;7517;48.400;11.770;2023-02-12T11:30:51;98367.00;;;12.60
14851;BMP180;7517;48.400;11.770;2023-02-12T11:33:26;98377.00;;;12.70
14851;BMP180;7517;48.400;11.770;2023-02-12T11:35:59;98382.00;;;12.70
14851;BMP180;7517;48.400;11.770;2023-02-12T11:38:32;98375.00;;;12.70
14851;BMP180;7517;48.400;11.770;2023-02-12T11:41:07;98374.00;;;12.70
14851;BMP180;7517;48.400;11.770;2023-02-12T11:43:37;98377.00;;;12.70
14851;BMP180;7517;48.400;11.770;2023-02-12T11:46:06;98376.00;;;12.70
14851;BMP180;7517;48.400;11.770;2023-02-12T11:48:38;98375.00;;;12.80
14851;BMP180;7517;48.400;11.770;2023-02-12T11:51:17;98369.00;;;12.80
14851;BMP180;7517;48.400;11.770;2023-02-12T11:53:49;98367.00;;;12.90
14851;BMP180;7517;48.400;11.770;2023-02-12T11:56:21;98365.00;;;12.90
14851;BMP180;7517;48.400;11.770;2023-02-12T11:58:50;98361.00;;;13.00
14851;BMP180;7517;48.400;11.770;2023-02-12T12:01:21;98366.00;;;13.00
14851;BMP180;7517;48.400;11.770;2023-02-12T12:03:58;98362.00;;;13.10
14851;BMP180;7517;48.400;11.770;2023-02-12T12:06:40;98361.00;;;13.10
14851;BMP180;7517;48.400;11.770;2023-02-12T12:09:18;98351.00;;;13.10
14851;BMP180;7517;48.400;11.770;2023-02-12T12:11:56;98348.00;;;13.10
14851;BMP180;7517;48.400;11.770;2023-02-12T12:14:29;98353.00;;;13.20
14851;BMP180;7517;48.400;11.770;2023-02-12T12:17:02;98349.00;;;13.20
14851;BMP180;7517;48.400;11.770;2023-02-12T12:19:58;98353.00;;;13.10
14851;BMP180;7517;48.400;11.770;2023-02-12T12:22:51;98351.00;;;13.10
14851;BMP180;7517;48.400;11.770;2023-02-12T12:25:24;98351.00;;;13.10
14851;BMP180;7517;48.400;11.770;2023-02-12T12:28:04;98349.00;;;13.10
14851;BMP180;7517;48.400;11.770;2023-02-12T12:30:59;98354.00;;;13.10
14851;BMP180;7517;48.400;11.770;2023-02-12T12:33:40;98348.00;;;13.00
14851;BMP180;7517;48.400;11.770;2023-02-12T12:36:46;98341.00;;;13.00
14851;BMP180;7517;48.400;11.770;2023-02-12T12:39:27;98348.00;;;13.00
14851;BMP180;7517;48.400;11.770;2023-02-12T12:42:50;98344.00;;;12.90
14851;BMP180;7517;48.400;11.770;2023-02-12T12:45:39;98341.00;;;12.80
14851;BMP180;7517;48.400;11.770;2023-02-12T12:48:24;98341.00;;;12.80
14851;BMP180;7517;48.400;11.770;2023-02-12T12:51:09;98336.00;;;12.90
14851;BMP180;7517;48.400;11.770;2023-02-12T12:53:55;98335.00;;;12.90
14851;BMP180;7517;48.400;11.770;2023-02-12T12:56:47;98329.00;;;13.00
14851;BMP180;7517;48.400;11.770;2023-02-12T12:59:42;98336.00;;;13.00
14851;BMP180;7517;48.400;11.770;2023-02-12T13:06:00;98334.00;;;12.90
14851;BMP180;7517;48.400;11.770;2023-02-12T13:09:00;98332.00;;;12.90
14851;BMP180;7517;48.400;11.770;2023-02-12T13:11:45;98321.00;;;12.90
14851;BMP180;7517;48.400;11.770;2023-02-12T13:14:34;98326.00;;;13.00
14851;BMP180;7517;48.400;11.770;2023-02-12T13:17:16;98320.00;;;13.00
14851;BMP180;7517;48.400;11.770;2023-02-12T13:19:56;98318.00;;;13.10
14851;BMP180;7517;48.400;11.770;2023-02-12T13:22:35;98326.00;;;13.10
14851;BMP180;7517;48.400;11.770;2023-02-12T13:25:23;98324.00;;;13.10
14851;BMP180;7517;48.400;11.770;2023-02-12T13:27:57;98333.00;;;13.10
14851;BMP180;7517;48.400;11.770;2023-02-12T13:30:30;98331.00;;;13.10
14851;BMP180;7517;48.400;11.770;2023-02-12T13:33:09;98328.00;;;13.10
14851;BMP180;7517;48.400;11.770;2023-02-12T13:35:44;98325.00;;;13.00
14851;BMP180;7517;48.400;11.770;2023-02-12T13:38:20;98329.00;;;13.10
14851;BMP180;7517;48.400;11.770;2023-02-12T13:40:52;98308.00;;;13.10
14851;BMP180;7517;48.400;11.770;2023-02-12T13:43:51;98324.00;;;13.10
14851;BMP180;7517;48.400;11.770;2023-02-12T13:46:35;98320.00;;;13.00
14851;BMP180;7517;48.400;11.770;2023-02-12T13:49:19;98329.00;;;13.10
14851;BMP180;7517;48.400;11.770;2023-02-12T13:51:57;98324.00;;;13.10
14851;BMP180;7517;48.400;11.770;2023-02-12T13:54:46;98324.00;;;13.10
14851;BMP180;7517;48.400;11.770;2023-02-12T13:57:19;98321.00;;;13.10
14851;BMP180;7517;48.400;11.770;2023-02-12T13:59:50;98329.00;;;13.10
14851;BMP180;7517;48.400;11.770;2023-02-12T14:02:43;98320.00;;;13.10
14851;BMP180;7517;48.400;11.770;2023-02-12T14:05:33;98319.00;;;13.10
14851;BMP180;7517;48.400;11.770;2023-02-12T14:08:05;98317.00;;;13.00
14851;BMP180;7517;48.400;11.770;2023-02-12T14:10:36;98310.00;;;13.00
14851;BMP180;7517;48.400;11.770;2023-02-12T14:13:18;98303.00;;;12.90
14851;BMP180;7517;48.400;11.770;2023-02-12T14:15:53;98322.00;;;12.90
14851;BMP180;7517;48.400;11.770;2023-02-12T14:18:33;98315.00;;;12.90
14851;BMP180;7517;48.400;11.770;2023-02-12T14:21:40;98327.00;;;12.90
14851;BMP180;7517;48.400;11.770;2023-02-12T14:24:50;98320.00;;;12.80
14851;BMP180;7517;48.400;11.770;2023-02-12T14:27:35;98314.00;;;12.80
14851;BMP180;7517;48.400;11.770;2023-02-12T14:30:33;98314.00;;;12.80
14851;BMP180;7517;48.400;11.770;2023-02-12T14:33:26;98325.00;;;12.80
14851;BMP180;7517;48.400;11.770;2023-02-12T14:36:19;98316.00;;;12.70
14851;BMP180;7517;48.400;11.770;2023-02-12T14:38:58;98321.00;;;12.70
14851;BMP180;7517;48.400;11.770;2023-02-12T14:41:37;98312.00;;;12.70
14851;BMP180;7517;48.400;11.770;2023-02-12T14:44:45;98303.00;;;12.70
14851;BMP180;7517;48.400;11.770;2023-02-12T14:50:35;98308.00;;;12.70
14851;BMP180;7517;48.400;11.770;2023-02-12T14:53:15;98307.00;;;12.70
14851;BMP180;7517;48.400;11.770;2023-02-12T14:55:47;98311.00;;;12.70
14851;BMP180;7517;48.400;11.770;2023-02-12T14:58:19;98311.00;;;12.70
14851;BMP180;7517;48.400;11.770;2023-02-12T15:00:50;98312.00;;;12.60
14851;BMP180;7517;48.400;11.770;2023-02-12T15:03:39;98300.00;;;12.60
14851;BMP180;7517;48.400;11.770;2023-02-12T15:06:15;98303.00;;;12.60
14851;BMP180;7517;48.400;11.770;2023-02-12T15:08:50;98298.00;;;12.50
14851;BMP180;7517;48.400;11.770;2023-02-12T15:11:28;98301.00;;;12.50
14851;BMP180;7517;48.400;11.770;2023-02-12T15:14:04;98304.00;;;12.50
14851;BMP180;7517;48.400;11.770;2023-02-12T15:16:53;98301.00;;;12.50
14851;BMP180;7517;48.400;11.770;2023-02-12T15:19:39;98298.00;;;12.50